Time;durP1;ratioP1;P1;durP2;ratioP2;P2;SDS_P1;SDS_P2;PMS_P1;PMS_P2;Temp;Humidity;BMP_temperature;BMP_pressure;BME280_temperature;BME280_humidity;BME280_pressure;Samples;Min_cycle;Max_cycle;Signal;HPM_P1;HPM_P2
2022/03/20 00:01:14;;;;;;;36.27;26.83;;;;;;;2.58;83.37;97822.38;5030156;28;20438;-74
2022/03/20 00:03:41;;;;;;;40.43;27.60;;;;;;;2.46;83.36;97824.28;5021620;28;20543;-74
2022/03/20 00:06:08;;;;;;;42.23;31.03;;;;;;;2.34;84.77;97800.06;5028971;28;20496;-73
2022/03/20 00:08:34;;;;;;;42.80;30.37;;;;;;;2.71;84.16;97844.78;5020171;28;20471;-74
2022/03/20 00:11:02;;;;;;;45.20;29.53;;;;;;;2.73;84.41;97849.75;5029435;28;20452;-74
2022/03/20 00:13:30;;;;;;;50.60;29.80;;;;;;;2.70;84.46;97827.53;5017936;28;20467;-73
2022/03/20 00:15:59;;;;;;;36.10;28.57;;;;;;;2.67;85.25;97841.88;5025946;28;20467;-75
2022/03/20 00:18:26;;;;;;;45.00;29.97;;;;;;;2.70;85.31;97842.41;5039004;28;20439;-74
2022/03/20 00:20:55;;;;;;;40.50;27.70;;;;;;;2.45;86.06;97809.66;5037307;28;20435;-75
2022/03/20 00:23:23;;;;;;;41.90;28.77;;;;;;;2.61;86.41;97840.19;5019208;28;20521;-75
2022/03/20 00:25:52;;;;;;;43.73;31.77;;;;;;;2.50;87.34;97825.38;5061211;28;20528;-73
2022/03/20 00:28:23;;;;;;;40.80;29.30;;;;;;;2.36;87.41;97811.06;5032573;28;20984;-74
2022/03/20 00:30:50;;;;;;;45.47;31.50;;;;;;;2.34;87.69;97784.41;5028315;28;20932;-73
2022/03/20 00:33:17;;;;;;;43.33;31.97;;;;;;;2.46;87.78;97806.00;5019151;28;20888;-73
2022/03/20 00:35:44;;;;;;;35.70;28.40;;;;;;;2.33;88.29;97788.06;5026945;28;20452;-74
2022/03/20 00:38:11;;;;;;;46.23;31.00;;;;;;;1.87;88.81;97719.50;5018649;28;20491;-73
2022/03/20 00:40:38;;;;;;;40.50;29.23;;;;;;;2.22;89.10;97778.47;5018653;28;20539;-74
2022/03/20 00:43:06;;;;;;;40.33;29.73;;;;;;;2.47;89.92;97825.06;5037754;28;20440;-74
2022/03/20 00:45:34;;;;;;;39.37;29.50;;;;;;;2.34;89.55;97800.88;5026623;28;20467;-73
2022/03/20 00:48:01;;;;;;;39.03;29.60;;;;;;;2.44;90.54;97818.50;5005640;28;20767;-74
2022/03/20 00:50:28;;;;;;;37.53;27.90;;;;;;;2.44;90.64;97812.50;5034051;28;20452;-73
2022/03/20 00:52:56;;;;;;;46.83;32.37;;;;;;;2.20;90.38;97777.91;5008814;28;20458;-74
2022/03/20 00:55:23;;;;;;;37.67;27.80;;;;;;;2.30;91.15;97799.75;5023020;28;20465;-74
2022/03/20 00:57:50;;;;;;;40.97;30.10;;;;;;;2.02;90.30;97761.47;5023850;28;20493;-74
2022/03/20 01:00:16;;;;;;;36.73;28.63;;;;;;;2.40;90.57;97812.16;5035640;28;20514;-73
2022/03/20 01:02:44;;;;;;;38.60;28.30;;;;;;;2.33;91.16;97816.75;5032684;28;20440;-74
2022/03/20 01:05:12;;;;;;;39.97;27.03;;;;;;;2.34;91.11;97818.34;5017711;28;20473;-75
2022/03/20 01:07:39;;;;;;;30.10;25.43;;;;;;;2.35;90.97;97825.13;5019147;28;20456;-73
2022/03/20 01:10:07;;;;;;;40.53;27.60;;;;;;;2.16;90.16;97784.66;5030493;28;20492;-75
2022/03/20 01:12:36;;;;;;;37.50;28.13;;;;;;;2.30;90.91;97819.84;5009872;28;20440;-74
2022/03/20 01:15:04;;;;;;;36.67;26.10;;;;;;;2.30;90.34;97814.63;5015340;28;20486;-73
2022/03/20 01:17:31;;;;;;;35.03;27.50;;;;;;;2.21;90.72;97801.16;5028764;28;20519;-74
2022/03/20 01:19:58;;;;;;;36.83;26.20;;;;;;;2.13;90.13;97787.69;5031209;28;20423;-74
2022/03/20 01:22:25;;;;;;;40.77;29.53;;;;;;;2.14;91.18;97795.31;5026556;28;20886;-73
2022/03/20 01:24:51;;;;;;;36.50;28.10;;;;;;;2.24;89.97;97816.34;5037763;28;20489;-73
2022/03/20 01:27:18;;;;;;;40.20;27.70;;;;;;;2.19;90.58;97802.44;5027282;28;20453;-73
2022/03/20 01:29:45;;;;;;;40.40;27.13;;;;;;;2.04;90.62;97780.28;5035847;28;20444;-74
2022/03/20 01:32:11;;;;;;;35.60;26.23;;;;;;;2.11;91.49;97806.19;5021058;28;20490;-73
2022/03/20 01:34:39;;;;;;;38.50;27.13;;;;;;;2.07;91.56;97803.28;5021238;28;20487;-73
2022/03/20 01:37:06;;;;;;;39.80;25.93;;;;;;;1.95;91.84;97776.47;5019834;28;20512;-74
2022/03/20 01:39:33;;;;;;;40.77;27.97;;;;;;;2.12;91.68;97805.19;4995567;28;20523;-73
2022/03/20 01:42:03;;;;;;;38.60;25.00;;;;;;;2.05;91.82;97775.84;5011964;28;20443;-72
2022/03/20 01:44:34;;;;;;;41.60;27.53;;;;;;;2.17;92.23;97804.50;5018433;28;20457;-72
2022/03/20 01:47:06;;;;;;;38.53;26.33;;;;;;;2.13;92.21;97793.72;5025355;28;20432;-72
2022/03/20 01:49:32;;;;;;;41.40;28.13;;;;;;;1.92;92.49;97771.72;5016095;28;20526;-73
2022/03/20 01:52:11;;;;;;;39.23;26.97;;;;;;;1.90;92.37;97767.78;5032406;28;20531;-72
2022/03/20 01:54:41;;;;;;;37.43;26.40;;;;;;;1.67;93.35;97755.63;5035856;28;20460;-72
2022/03/20 01:57:09;;;;;;;46.17;26.50;;;;;;;1.83;94.00;97775.72;4999953;28;20463;-73
2022/03/20 01:59:36;;;;;;;35.63;27.00;;;;;;;1.95;94.10;97776.47;5034248;28;20522;-74
2022/03/20 02:02:03;;;;;;;31.30;23.87;;;;;;;1.97;94.17;97784.84;5021807;28;20512;-72
2022/03/20 02:04:33;;;;;;;40.23;27.63;;;;;;;1.70;94.25;97753.34;5033923;28;20821;-73
2022/03/20 02:07:00;;;;;;;39.27;27.03;;;;;;;1.86;95.02;97771.84;5018601;28;20498;-73
2022/03/20 02:09:27;;;;;;;37.97;27.33;;;;;;;1.95;94.91;97789.50;5024367;28;20444;-74
2022/03/20 02:11:55;;;;;;;39.50;26.87;;;;;;;1.82;96.07;97768.13;5030873;28;20446;-72
2022/03/20 02:14:22;;;;;;;37.23;28.10;;;;;;;1.84;96.97;97779.91;5024816;28;20535;-72
2022/03/20 02:16:49;;;;;;;33.73;25.43;;;;;;;1.75;96.66;97774.31;5016183;28;20868;-72
2022/03/20 02:19:16;;;;;;;36.50;26.97;;;;;;;1.64;97.41;97756.09;5025166;28;20433;-73
2022/03/20 02:21:47;;;;;;;32.90;25.60;;;;;;;1.85;97.80;97785.91;5020173;28;20861;-73
2022/03/20 02:24:36;;;;;;;37.87;27.60;;;;;;;1.78;97.88;97784.25;5032397;28;20484;-73
2022/03/20 02:27:18;;;;;;;44.17;25.13;;;;;;;1.55;98.52;97750.47;5000216;28;20462;-73
2022/03/20 02:29:49;;;;;;;34.93;25.37;;;;;;;1.55;98.96;97765.31;5018139;28;20416;-72
2022/03/20 02:32:18;;;;;;;35.97;26.80;;;;;;;1.74;99.83;97790.97;5021975;28;20779;-73
2022/03/20 02:34:47;;;;;;;41.90;27.10;;;;;;;1.46;100.00;97770.09;5015157;28;20447;-73
2022/03/20 02:37:14;;;;;;;42.10;28.97;;;;;;;1.47;100.00;97764.66;5019669;28;20507;-73
2022/03/20 02:39:41;;;;;;;39.93;28.87;;;;;;;1.46;100.00;97762.25;5007829;28;20478;-73
2022/03/20 02:42:08;;;;;;;36.40;26.70;;;;;;;1.48;100.00;97786.31;5011232;28;20937;-73
2022/03/20 02:44:49;;;;;;;34.90;25.90;;;;;;;1.56;100.00;97777.31;5011245;28;20551;-73
2022/03/20 02:47:20;;;;;;;38.43;27.37;;;;;;;1.51;100.00;97787.66;5025183;28;20872;-72
2022/03/20 02:50:17;;;;;;;37.70;26.97;;;;;;;1.45;100.00;97789.34;5019953;28;20651;-73
2022/03/20 02:52:48;;;;;;;34.77;26.37;;;;;;;1.36;100.00;97781.13;5011405;28;20448;-73
2022/03/20 02:55:35;;;;;;;34.53;27.13;;;;;;;1.40;100.00;97784.84;5012228;28;20879;-73
2022/03/20 02:58:05;;;;;;;45.63;29.33;;;;;;;1.47;100.00;97795.16;5019760;28;20423;-72
2022/03/20 03:00:33;;;;;;;37.13;27.10;;;;;;;1.41;100.00;97798.66;5015128;28;20928;-73
2022/03/20 03:03:02;;;;;;;38.80;27.20;;;;;;;1.31;100.00;97788.03;5011693;28;20949;-73
2022/03/20 03:05:31;;;;;;;33.70;25.83;;;;;;;1.22;100.00;97792.03;5010981;28;20832;-72
2022/03/20 03:11:01;;;;;;;37.07;27.47;;;;;;;1.01;100.00;97770.75;5017396;28;20456;-73
2022/03/20 03:13:34;;;;;;;38.07;28.07;;;;;;;1.27;100.00;97799.94;5030892;28;20455;-73
2022/03/20 03:16:07;;;;;;;37.57;25.90;;;;;;;1.30;100.00;97804.69;5032039;28;20446;-72
2022/03/20 03:18:35;;;;;;;36.67;26.27;;;;;;;1.33;100.00;97799.00;5014234;28;20471;-73
2022/03/20 03:21:03;;;;;;;47.10;28.27;;;;;;;1.23;100.00;97791.00;5021820;28;20434;-73
2022/03/20 03:23:30;;;;;;;35.27;25.47;;;;;;;1.12;100.00;97785.59;5027711;28;20498;-73
2022/03/20 03:25:57;;;;;;;36.60;25.23;;;;;;;1.12;100.00;97782.97;5027812;28;20523;-73
2022/03/20 03:28:32;;;;;;;40.83;26.00;;;;;;;1.23;100.00;97791.00;5015820;28;20516;-73
2022/03/20 03:30:58;;;;;;;37.00;25.10;;;;;;;1.03;100.00;97750.50;5018913;28;20844;-73
2022/03/20 03:33:25;;;;;;;36.47;25.87;;;;;;;1.39;100.00;97801.50;5028849;28;20445;-73
2022/03/20 03:35:54;;;;;;;36.90;23.50;;;;;;;1.17;100.00;97759.63;5016217;28;20448;-73
2022/03/20 03:38:26;;;;;;;36.30;25.13;;;;;;;1.45;100.00;97804.97;5010970;28;20498;-73
2022/03/20 03:40:55;;;;;;;33.57;24.23;;;;;;;1.30;100.00;97784.63;5024383;28;20462;-73
2022/03/20 03:43:22;;;;;;;36.27;24.33;;;;;;;1.44;100.00;97806.78;5018897;28;20918;-73
2022/03/20 03:45:49;;;;;;;36.33;25.60;;;;;;;1.00;100.00;97743.13;5027906;28;20515;-73
2022/03/20 03:48:16;;;;;;;35.43;23.70;;;;;;;1.37;100.00;97806.16;5011153;28;20458;-73
2022/03/20 03:50:45;;;;;;;38.03;25.50;;;;;;;1.35;100.00;97797.00;5023196;28;20451;-73
2022/03/20 03:53:13;;;;;;;31.27;24.33;;;;;;;1.16;100.00;97765.84;5018750;28;20466;-73
2022/03/20 03:55:44;;;;;;;36.00;23.30;;;;;;;1.12;100.00;97777.78;5016420;28;20993;-73
2022/03/20 03:58:15;;;;;;;35.40;25.40;;;;;;;1.14;100.00;97778.31;5029982;28;20465;-73
2022/03/20 04:00:43;;;;;;;30.80;22.90;;;;;;;1.26;100.00;97791.34;5016301;28;20946;-73
2022/03/20 04:03:12;;;;;;;36.93;24.80;;;;;;;1.18;100.00;97794.28;5020123;28;20981;-73
2022/03/20 04:05:40;;;;;;;29.30;23.23;;;;;;;1.17;100.00;97788.28;5039157;28;21096;-73
2022/03/20 04:08:09;;;;;;;30.90;24.00;;;;;;;1.21;100.00;97780.03;5028001;28;20441;-73
2022/03/20 04:10:36;;;;;;;32.80;23.90;;;;;;;1.23;100.00;97785.78;5018312;28;20958;-73
2022/03/20 04:13:02;;;;;;;30.80;24.97;;;;;;;1.07;100.00;97754.25;5021465;28;20452;-73
2022/03/20 04:15:31;;;;;;;34.80;25.57;;;;;;;1.23;100.00;97783.97;5031733;28;20475;-73
2022/03/20 04:18:00;;;;;;;34.10;24.97;;;;;;;1.22;100.00;97784.22;5004760;28;20869;-73
2022/03/20 04:20:27;;;;;;;39.83;24.50;;;;;;;0.97;100.00;97756.63;5033397;28;20418;-73
2022/03/20 04:25:39;;;;;;;35.83;23.13;;;;;;;1.26;100.00;97788.72;5024618;28;20521;-73
2022/03/20 04:28:06;;;;;;;32.30;22.67;;;;;;;1.13;100.00;97771.53;5014522;28;20475;-73
2022/03/20 04:30:34;;;;;;;39.17;27.27;;;;;;;1.01;100.00;97760.34;5034046;28;20971;-73
2022/03/20 04:33:02;;;;;;;29.63;22.43;;;;;;;0.97;100.00;97756.63;5032369;28;20469;-73
2022/03/20 04:35:28;;;;;;;35.17;24.77;;;;;;;1.08;100.00;97773.25;5022115;28;20486;-73
2022/03/20 04:38:01;;;;;;;29.50;22.40;;;;;;;1.11;100.00;97780.59;5009212;28;20836;-73
2022/03/20 04:40:28;;;;;;;27.60;21.40;;;;;;;0.85;100.00;97730.59;5015031;28;20489;-73
2022/03/20 04:42:56;;;;;;;36.33;23.70;;;;;;;1.12;100.00;97771.78;5018818;28;21225;-73
2022/03/20 04:45:24;;;;;;;32.57;22.93;;;;;;;1.13;100.00;97779.34;5020816;28;20474;-73
2022/03/20 04:58:51;;;;;;;31.97;23.40;;;;;;;1.01;100.00;97809.81;5027344;28;20539;-73
2022/03/20 05:01:18;;;;;;;30.90;23.00;;;;;;;0.78;100.00;97775.97;5023433;28;20424;-73
2022/03/20 05:03:47;;;;;;;32.17;22.47;;;;;;;0.96;100.00;97820.13;5031688;28;20432;-73
2022/03/20 05:06:13;;;;;;;42.00;27.00;;;;;;;0.82;100.00;97811.75;5020937;28;20518;-73
2022/03/20 05:08:40;;;;;;;34.70;22.40;;;;;;;1.03;100.00;97825.22;5019822;28;20446;-73
2022/03/20 05:13:52;;;;;;;31.13;23.30;;;;;;;0.69;100.00;97809.38;5012084;28;20440;-73
2022/03/20 05:16:19;;;;;;;39.80;23.67;;;;;;;0.74;100.00;97827.72;5012280;28;20490;-73
2022/03/20 05:18:46;;;;;;;33.00;24.47;;;;;;;0.78;100.00;97830.66;4998342;28;20456;-73
2022/03/20 05:21:12;;;;;;;31.40;24.87;;;;;;;0.77;100.00;97827.25;5023585;28;20475;-73
2022/03/20 05:23:39;;;;;;;33.03;24.30;;;;;;;0.94;100.00;97837.81;5018126;28;20535;-73
2022/03/20 05:26:06;;;;;;;35.03;22.50;;;;;;;0.79;100.00;97819.22;5022598;28;20477;-73
2022/03/20 05:28:33;;;;;;;34.30;23.50;;;;;;;0.70;100.00;97810.19;5027111;28;20449;-73
2022/03/20 05:31:01;;;;;;;34.20;22.60;;;;;;;0.81;100.00;97844.03;5039703;28;20428;-73
2022/03/20 05:33:31;;;;;;;33.60;24.10;;;;;;;0.74;100.00;97847.75;5017418;28;20478;-72
2022/03/20 05:35:58;;;;;;;37.67;24.03;;;;;;;0.82;100.00;97855.22;5013036;28;21061;-73
2022/03/20 05:38:25;;;;;;;35.07;24.07;;;;;;;0.72;100.00;97847.97;5019301;28;21026;-73
2022/03/20 05:41:43;;;;;;;43.37;24.73;;;;;;;0.71;100.00;97846.38;5018480;28;20424;-73
2022/03/20 05:43:38;;;;;;;35.30;25.83;;;;;;;0.66;100.00;97851.44;5011467;28;20467;-73
2022/03/20 05:46:05;;;;;;;34.90;23.73;;;;;;;0.48;100.00;97818.50;4998256;28;20468;-73
2022/03/20 05:48:31;;;;;;;33.53;23.90;;;;;;;0.65;100.00;97842.06;5023431;28;20427;-73
2022/03/20 05:50:58;;;;;;;30.30;22.73;;;;;;;0.72;100.00;97855.78;5017788;28;20493;-73
2022/03/20 05:53:24;;;;;;;28.07;20.90;;;;;;;0.80;100.00;97863.25;5014548;28;20473;-73
2022/03/20 05:58:37;;;;;;;35.30;24.63;;;;;;;0.55;100.00;97828.84;5024573;28;20541;-73
2022/03/20 06:01:04;;;;;;;30.63;22.97;;;;;;;0.86;100.00;97862.34;5019622;28;20433;-73
2022/03/20 06:03:31;;;;;;;40.80;23.53;;;;;;;0.85;100.00;97868.59;5030706;28;20439;-73
2022/03/20 06:05:58;;;;;;;32.77;23.80;;;;;;;0.91;100.00;97871.28;5024503;28;20990;-73
2022/03/20 06:08:25;;;;;;;32.70;23.40;;;;;;;0.99;100.00;97874.38;5024098;28;20462;-73
2022/03/20 06:10:54;;;;;;;34.70;24.63;;;;;;;0.92;100.00;97852.03;5018587;28;21046;-73
2022/03/20 06:13:21;;;;;;;30.00;24.90;;;;;;;0.70;100.00;97820.59;5017525;28;20455;-73
2022/03/20 06:15:47;;;;;;;30.80;22.57;;;;;;;0.98;100.00;97851.94;5022978;28;20502;-73
2022/03/20 06:18:14;;;;;;;31.20;22.70;;;;;;;1.12;100.00;97886.38;5012270;28;20544;-73
2022/03/20 06:20:40;;;;;;;29.87;22.93;;;;;;;1.11;100.00;97875.16;5022396;28;20975;-73
2022/03/20 06:23:07;;;;;;;33.93;20.90;;;;;;;0.96;100.00;97840.97;5012358;28;20439;-73
2022/03/20 06:25:34;;;;;;;28.53;21.67;;;;;;;1.27;100.00;97885.91;5013992;28;21079;-73
2022/03/20 06:28:02;;;;;;;31.70;24.13;;;;;;;1.30;100.00;97888.06;5017130;28;20551;-73
2022/03/20 06:30:33;;;;;;;28.10;20.70;;;;;;;1.44;100.00;97882.38;5022001;28;20438;-73
2022/03/20 06:33:02;;;;;;;25.37;21.73;;;;;;;1.30;100.00;97867.22;5012080;28;20421;-73
2022/03/20 06:35:29;;;;;;;31.53;23.20;;;;;;;1.41;100.00;97876.81;5010456;28;20465;-73
2022/03/20 06:37:56;;;;;;;35.37;21.97;;;;;;;1.50;100.00;97882.50;5040203;28;20497;-73
2022/03/20 06:40:23;;;;;;;36.70;25.13;;;;;;;1.52;100.00;97896.88;5020470;28;20443;-73
2022/03/20 06:42:52;;;;;;;32.27;23.50;;;;;;;1.58;100.00;97887.34;5018207;28;20868;-73
2022/03/20 06:45:20;;;;;;;33.13;24.33;;;;;;;1.64;100.00;97892.44;5029867;28;20462;-73
2022/03/20 06:47:47;;;;;;;28.00;20.30;;;;;;;1.85;100.00;97900.66;5025408;28;20465;-73
2022/03/20 06:50:14;;;;;;;29.93;20.30;;;;;;;1.74;100.00;97877.00;5022611;28;20470;-73
2022/03/20 06:52:41;;;;;;;25.30;19.73;;;;;;;1.95;100.00;97917.28;5029831;28;20431;-73
2022/03/20 06:55:12;;;;;;;33.73;22.13;;;;;;;2.09;100.00;97912.59;5002622;28;20460;-73
2022/03/20 06:57:41;;;;;;;37.40;22.93;;;;;;;2.05;100.00;97890.63;5026455;28;20442;-73
2022/03/20 07:00:09;;;;;;;28.40;20.93;;;;;;;2.32;100.00;97919.56;5031336;28;21254;-73
2022/03/20 07:02:47;;;;;;;29.50;20.87;;;;;;;2.33;100.00;97916.72;5022506;28;20947;-73
2022/03/20 07:05:14;;;;;;;28.73;21.53;;;;;;;2.47;100.00;97925.06;5024043;28;20892;-73
2022/03/20 07:07:41;;;;;;;27.47;18.07;;;;;;;2.76;98.81;97938.06;5021920;28;20865;-73
2022/03/20 07:10:08;;;;;;;27.67;18.17;;;;;;;2.94;97.31;97943.09;5056435;28;20472;-73
2022/03/20 07:12:35;;;;;;;28.23;21.17;;;;;;;2.84;96.43;97933.25;5019468;28;20432;-73
2022/03/20 07:15:02;;;;;;;27.20;18.63;;;;;;;2.95;94.79;97947.28;5028207;28;20513;-73
2022/03/20 07:17:29;;;;;;;22.73;16.83;;;;;;;3.05;94.62;97949.25;5018163;28;20479;-73
2022/03/20 07:19:58;;;;;;;28.87;19.37;;;;;;;3.15;92.73;97949.41;5027898;28;21021;-73
2022/03/20 07:22:26;;;;;;;28.20;21.80;;;;;;;3.37;91.96;97957.34;5018836;28;20435;-73
2022/03/20 07:24:53;;;;;;;27.50;20.40;;;;;;;3.12;91.25;97924.56;5028591;28;20890;-73
2022/03/20 07:30:07;;;;;;;24.97;19.23;;;;;;;3.93;90.04;97951.03;5025772;28;20460;-73
2022/03/20 07:32:35;;;;;;;23.07;18.60;;;;;;;3.66;86.17;97935.25;5022670;28;21167;-73
2022/03/20 07:35:02;;;;;;;28.13;21.13;;;;;;;3.84;86.61;97957.72;5016285;28;21050;-73
2022/03/20 07:37:29;;;;;;;24.77;18.00;;;;;;;3.84;84.06;97921.09;5029558;28;20451;-73
2022/03/20 07:39:55;;;;;;;26.47;18.57;;;;;;;3.96;84.02;97937.47;5024622;28;20433;-73
2022/03/20 07:42:26;;;;;;;29.40;21.30;;;;;;;4.25;84.05;97960.81;5023534;28;20475;-73
2022/03/20 07:44:54;;;;;;;29.43;20.53;;;;;;;4.06;82.45;97921.09;5001264;28;20471;-72
2022/03/20 07:47:22;;;;;;;21.73;18.27;;;;;;;4.48;82.34;97951.94;5027034;28;20463;-73
2022/03/20 07:49:50;;;;;;;26.60;19.70;;;;;;;4.71;81.08;97952.44;5037924;28;20439;-73
2022/03/20 07:52:18;;;;;;;27.50;18.53;;;;;;;4.58;80.35;97921.41;5018684;28;20428;-73
2022/03/20 07:54:47;;;;;;;26.73;17.93;;;;;;;4.35;78.55;97919.06;5030088;28;21142;-73
2022/03/20 07:57:14;;;;;;;24.10;19.13;;;;;;;4.38;78.93;97905.47;5010542;28;20487;-73
2022/03/20 07:59:42;;;;;;;22.63;17.77;;;;;;;4.78;77.81;97928.63;5034192;28;20921;-73
2022/03/20 08:02:09;;;;;;;26.80;20.17;;;;;;;5.13;77.12;97956.97;5032192;28;21001;-73
2022/03/20 08:04:36;;;;;;;24.33;19.23;;;;;;;4.63;77.40;97939.75;5013699;28;20471;-73
2022/03/20 08:07:05;;;;;;;24.80;19.53;;;;;;;4.71;76.56;97917.56;5016686;28;20471;-73
2022/03/20 08:09:31;;;;;;;20.50;15.80;;;;;;;4.68;75.68;97913.63;5023058;28;20896;-73
2022/03/20 08:11:59;;;;;;;31.60;19.00;;;;;;;4.78;74.82;97933.09;5031952;28;20448;-73
2022/03/20 08:14:27;;;;;;;23.90;16.47;;;;;;;4.95;74.77;97931.94;5023026;28;20499;-73
2022/03/20 08:16:54;;;;;;;21.80;18.43;;;;;;;5.13;74.15;97932.59;5030869;28;20443;-73
2022/03/20 08:19:23;;;;;;;23.33;19.10;;;;;;;5.11;73.63;97922.38;5034651;28;20435;-73
2022/03/20 08:21:51;;;;;;;20.40;17.13;;;;;;;5.62;72.69;97951.56;5016752;28;20459;-72
2022/03/20 08:24:19;;;;;;;23.60;18.57;;;;;;;5.73;72.20;97957.63;5025537;28;20469;-73
2022/03/20 08:26:46;;;;;;;23.03;17.53;;;;;;;5.94;71.37;97948.84;5015018;28;20527;-73
2022/03/20 08:29:14;;;;;;;23.13;17.27;;;;;;;5.55;70.85;97954.38;5015002;28;20948;-73
2022/03/20 08:31:47;;;;;;;23.23;17.57;;;;;;;5.56;70.95;97936.81;5033675;28;20909;-73
2022/03/20 08:34:16;;;;;;;25.07;18.40;;;;;;;5.36;70.42;97939.31;5034465;28;20498;-73
2022/03/20 08:36:47;;;;;;;23.73;17.70;;;;;;;5.08;70.11;97917.63;5033305;28;20456;-73
2022/03/20 08:39:13;;;;;;;25.40;17.67;;;;;;;5.45;69.05;97928.09;5021616;28;20426;-73
2022/03/20 08:41:43;;;;;;;20.33;18.00;;;;;;;5.40;68.48;97930.69;5033472;28;20968;-73
2022/03/20 08:44:09;;;;;;;26.30;20.50;;;;;;;5.64;68.61;97939.75;5019818;28;20470;-73
2022/03/20 08:46:37;;;;;;;29.30;21.97;;;;;;;5.50;69.25;97925.50;5033236;28;20464;-73
2022/03/20 08:49:07;;;;;;;32.97;21.27;;;;;;;5.83;68.76;97945.34;5034319;28;20925;-73
2022/03/20 08:51:34;;;;;;;23.63;18.80;;;;;;;5.59;67.73;97950.22;5023888;28;20440;-73
2022/03/20 08:54:02;;;;;;;24.97;19.03;;;;;;;5.63;68.73;97930.31;5016876;28;20958;-73
2022/03/20 08:56:29;;;;;;;29.40;21.03;;;;;;;5.76;68.40;97933.53;5032632;28;20511;-73
2022/03/20 08:58:57;;;;;;;21.20;18.30;;;;;;;6.04;68.17;97956.00;5021059;28;20806;-73
2022/03/20 09:01:23;;;;;;;23.13;16.70;;;;;;;6.32;67.92;97952.94;5023923;28;20520;-73
2022/03/20 09:03:52;;;;;;;19.80;16.20;;;;;;;6.07;66.10;97944.97;5031093;28;20432;-73
2022/03/20 09:06:20;;;;;;;20.50;17.70;;;;;;;6.31;65.53;97948.75;5023081;28;20921;-73
2022/03/20 09:08:48;;;;;;;16.50;14.07;;;;;;;6.41;66.01;97946.16;5013104;28;20801;-73
2022/03/20 09:11:15;;;;;;;18.53;15.37;;;;;;;6.19;65.24;97925.31;5028819;28;20522;-73
2022/03/20 09:13:42;;;;;;;21.20;15.53;;;;;;;6.46;64.68;97943.53;5012707;28;20472;-73
2022/03/20 09:18:59;;;;;;;19.40;16.23;;;;;;;6.24;63.54;97929.78;5019915;28;20451;-73
2022/03/20 09:21:28;;;;;;;21.87;15.77;;;;;;;6.59;63.65;97954.59;5019089;28;20442;-73
2022/03/20 09:23:55;;;;;;;24.23;15.50;;;;;;;6.52;63.55;97921.44;5023059;28;20441;-74
2022/03/20 09:26:22;;;;;;;22.70;14.83;;;;;;;6.81;61.44;97948.06;5014713;28;20480;-74
2022/03/20 09:28:48;;;;;;;22.00;17.33;;;;;;;6.72;62.35;97915.44;5033003;28;20447;-73
2022/03/20 09:31:16;;;;;;;20.37;13.87;;;;;;;6.47;61.25;97926.72;5019771;28;20889;-73
2022/03/20 09:33:43;;;;;;;17.10;15.30;;;;;;;6.67;61.29;97954.84;5023407;28;20448;-73
2022/03/20 09:36:10;;;;;;;21.53;16.20;;;;;;;6.89;60.42;97953.84;5015235;28;20523;-73
2022/03/20 09:38:37;;;;;;;17.60;15.07;;;;;;;6.81;60.87;97947.25;5033169;28;20908;-73
2022/03/20 09:41:11;;;;;;;22.97;16.03;;;;;;;6.88;60.29;97931.22;5019477;28;20420;-73
2022/03/20 09:43:40;;;;;;;18.33;15.40;;;;;;;6.50;58.83;97926.19;5020958;28;20504;-74
2022/03/20 09:46:14;;;;;;;21.53;14.70;;;;;;;6.75;58.66;97956.97;4999777;28;20985;-74
2022/03/20 09:48:42;;;;;;;21.03;15.30;;;;;;;6.76;59.22;97955.94;5028561;28;20471;-73
2022/03/20 09:51:09;;;;;;;20.80;14.90;;;;;;;6.97;58.75;97971.75;5031618;28;20797;-74
2022/03/20 09:53:36;;;;;;;20.20;16.30;;;;;;;6.86;58.12;97973.56;5020632;28;20500;-73
2022/03/20 09:56:05;;;;;;;14.30;12.33;;;;;;;7.14;59.64;97959.13;5024411;28;20472;-74
2022/03/20 09:58:32;;;;;;;18.27;13.87;;;;;;;6.72;58.20;97919.91;5025777;28;20475;-73
2022/03/20 10:01:00;;;;;;;20.93;15.17;;;;;;;6.85;57.89;97923.88;5019138;28;20478;-73
2022/03/20 10:03:27;;;;;;;15.83;12.90;;;;;;;6.94;57.22;97948.56;5017956;28;20459;-73
2022/03/20 10:06:07;;;;;;;21.67;14.30;;;;;;;7.01;57.45;97936.75;5018606;28;20885;-72
2022/03/20 10:08:34;;;;;;;16.77;15.07;;;;;;;7.03;57.27;97942.53;5018471;28;20964;-72
2022/03/20 10:11:17;;;;;;;16.27;13.90;;;;;;;7.17;57.83;97920.97;5030328;28;20475;-72
2022/03/20 10:14:16;;;;;;;16.40;13.53;;;;;;;7.37;56.21;97963.06;5017200;28;20463;-72
2022/03/20 10:17:02;;;;;;;24.23;15.33;;;;;;;7.18;57.13;97933.84;5016085;28;20472;-73
2022/03/20 10:19:31;;;;;;;16.43;14.10;;;;;;;7.47;56.45;97952.50;5024367;28;21045;-73
2022/03/20 10:22:04;;;;;;;17.83;15.10;;;;;;;7.55;55.15;97954.63;5030372;28;20866;-73
2022/03/20 10:24:32;;;;;;;20.20;14.27;;;;;;;7.62;55.42;97939.34;5029893;28;20902;-72
2022/03/20 10:26:59;;;;;;;18.77;14.13;;;;;;;7.61;55.49;97966.72;4994956;28;20472;-72
2022/03/20 10:29:28;;;;;;;14.93;12.23;;;;;;;7.39;55.79;97953.06;5028502;28;20528;-72
2022/03/20 10:31:56;;;;;;;15.73;13.37;;;;;;;7.45;56.06;97952.00;5018666;28;20475;-73
2022/03/20 10:34:26;;;;;;;19.40;15.23;;;;;;;7.65;55.61;97959.88;5016766;28;20515;-73
2022/03/20 10:36:53;;;;;;;20.30;14.50;;;;;;;7.80;54.30;97945.09;5031443;28;20443;-73
2022/03/20 10:39:21;;;;;;;16.57;14.13;;;;;;;7.85;54.19;97955.59;5029968;28;20491;-72
2022/03/20 10:41:52;;;;;;;21.13;14.80;;;;;;;7.57;53.75;97928.81;5031375;28;21011;-74
2022/03/20 10:44:31;;;;;;;18.57;14.10;;;;;;;7.69;53.95;97942.47;5016877;28;20459;-74
2022/03/20 10:47:05;;;;;;;18.07;14.60;;;;;;;7.80;53.47;97966.94;5018762;28;20499;-73
2022/03/20 10:49:32;;;;;;;17.97;13.80;;;;;;;7.24;53.65;97900.47;5015711;28;20479;-73
2022/03/20 10:52:08;;;;;;;15.80;12.33;;;;;;;7.73;53.52;97963.78;5017964;28;20441;-73
2022/03/20 10:54:54;;;;;;;16.97;14.47;;;;;;;8.22;54.05;97976.28;5003617;28;20454;-73
2022/03/20 10:57:21;;;;;;;22.27;14.03;;;;;;;7.97;53.60;97979.78;5029972;28;20449;-74
2022/03/20 11:00:06;;;;;;;16.60;14.20;;;;;;;7.77;53.47;97935.88;5030203;28;20445;-74
2022/03/20 11:02:35;;;;;;;16.97;15.20;;;;;;;8.06;53.59;97948.44;5013597;28;20475;-73
2022/03/20 11:05:02;;;;;;;20.87;14.53;;;;;;;7.77;53.25;97935.09;5029868;28;20474;-74
2022/03/20 11:07:28;;;;;;;13.23;11.13;;;;;;;8.17;52.20;97971.03;5031356;28;20488;-73
2022/03/20 11:09:55;;;;;;;20.10;13.33;;;;;;;7.95;52.62;97968.75;5017698;28;20820;-73
2022/03/20 11:12:33;;;;;;;17.00;13.27;;;;;;;8.03;52.61;97949.75;5017054;28;20853;-74
2022/03/20 11:15:09;;;;;;;17.67;13.40;;;;;;;8.15;52.98;97928.38;5030441;28;20502;-74
2022/03/20 11:17:44;;;;;;;19.60;13.00;;;;;;;8.76;51.56;97967.59;5030867;28;21017;-74
2022/03/20 11:20:13;;;;;;;17.63;13.67;;;;;;;8.70;50.99;97953.69;5030464;28;20431;-74
2022/03/20 11:22:58;;;;;;;17.73;13.13;;;;;;;8.64;50.94;97957.38;5026267;28;20494;-73
2022/03/20 11:25:26;;;;;;;15.70;12.60;;;;;;;8.65;51.01;97939.72;5033814;28;20824;-73
2022/03/20 11:27:59;;;;;;;18.07;14.73;;;;;;;8.80;49.98;97906.13;5020681;28;20483;-74
2022/03/20 11:30:28;;;;;;;15.90;13.87;;;;;;;8.74;49.61;97922.25;5027465;28;20429;-74
2022/03/20 11:32:58;;;;;;;18.53;13.47;;;;;;;9.44;49.78;97957.06;5026480;28;20933;-74
2022/03/20 11:35:28;;;;;;;15.33;13.20;;;;;;;9.21;48.50;97966.47;5024611;28;20451;-74
2022/03/20 11:37:59;;;;;;;18.13;14.37;;;;;;;9.40;48.57;97943.63;5020114;28;20444;-74
2022/03/20 11:40:26;;;;;;;15.47;13.17;;;;;;;9.62;48.39;97951.09;5033511;28;20429;-74
2022/03/20 11:43:11;;;;;;;16.30;12.80;;;;;;;10.11;48.65;97965.09;5015792;28;20427;-74
2022/03/20 11:45:38;;;;;;;17.53;13.20;;;;;;;10.39;47.30;97958.94;5030279;28;20449;-74
2022/03/20 11:48:14;;;;;;;16.97;13.10;;;;;;;10.33;46.80;97957.44;5026967;28;20504;-74
2022/03/20 11:50:50;;;;;;;15.87;13.93;;;;;;;10.13;46.11;97944.44;5017803;28;20457;-74
2022/03/20 11:53:28;;;;;;;17.23;12.50;;;;;;;10.21;47.03;97959.69;5024232;28;20449;-74
2022/03/20 11:55:55;;;;;;;16.70;13.20;;;;;;;10.29;46.19;97935.31;5032574;28;20453;-74
2022/03/20 11:58:22;;;;;;;13.60;11.87;;;;;;;10.30;45.94;97950.88;5032291;28;20432;-74